createdAt,value
2023-01-26T00:00:07.387Z,9.10
2023-01-26T00:00:17.439Z,8.60
2023-01-26T00:00:27.423Z,8.20
2023-01-26T00:00:37.408Z,8.50
2023-01-26T00:00:47.388Z,9.30
2023-01-26T00:00:57.483Z,9.40
2023-01-26T00:01:07.389Z,9.00
2023-01-26T00:01:17.382Z,8.70
2023-01-26T00:01:27.408Z,8.90
2023-01-26T00:01:37.448Z,8.90
2023-01-26T00:01:47.412Z,8.40
2023-01-26T00:01:57.369Z,8.30
2023-01-26T00:02:07.485Z,8.40
2023-01-26T00:02:17.486Z,9.00
2023-01-26T00:02:27.474Z,9.10
2023-01-26T00:02:37.492Z,8.70
2023-01-26T00:02:47.506Z,8.70
2023-01-26T00:02:57.471Z,8.60
2023-01-26T00:03:07.423Z,9.00
2023-01-26T00:03:17.437Z,9.10
2023-01-26T00:03:27.536Z,8.80
2023-01-26T00:03:37.611Z,8.90
2023-01-26T00:03:47.458Z,9.20
2023-01-26T00:03:57.717Z,9.10
2023-01-26T00:04:07.523Z,8.50
2023-01-26T00:04:17.472Z,8.60
2023-01-26T00:04:27.377Z,8.70
2023-01-26T00:04:37.518Z,9.30
2023-01-26T00:04:47.432Z,9.00
2023-01-26T00:04:57.437Z,9.20
2023-01-26T00:05:07.452Z,9.60
2023-01-26T00:05:17.473Z,9.00
2023-01-26T00:05:27.407Z,9.50
2023-01-26T00:05:37.540Z,8.80
2023-01-26T00:05:47.446Z,9.50
2023-01-26T00:05:57.368Z,9.10
2023-01-26T00:06:07.409Z,9.80
2023-01-26T00:06:17.433Z,9.70
2023-01-26T00:06:27.503Z,9.20
2023-01-26T00:06:37.424Z,8.90
2023-01-26T00:06:47.413Z,9.00
2023-01-26T00:06:57.388Z,9.20
2023-01-26T00:07:07.393Z,9.20
2023-01-26T00:07:17.440Z,9.40
2023-01-26T00:07:27.512Z,9.40
2023-01-26T00:07:37.476Z,10.10
2023-01-26T00:07:47.473Z,10.50
2023-01-26T00:07:57.526Z,10.10
2023-01-26T00:08:07.404Z,10.10
2023-01-26T00:08:17.482Z,9.80
2023-01-26T00:08:27.378Z,9.70
2023-01-26T00:08:37.433Z,9.80
2023-01-26T00:08:47.403Z,10.30
2023-01-26T00:08:57.432Z,11.00
2023-01-26T00:09:07.425Z,10.80
2023-01-26T00:09:17.441Z,9.50
2023-01-26T00:09:27.539Z,9.60
2023-01-26T00:09:37.407Z,9.70
2023-01-26T00:09:47.445Z,9.90
2023-01-26T00:09:57.449Z,9.30
2023-01-26T00:10:07.484Z,9.80
2023-01-26T00:10:17.486Z,10.00
2023-01-26T00:10:27.472Z,10.80
2023-01-26T00:10:37.447Z,10.30
2023-01-26T00:10:47.422Z,11.00
2023-01-26T00:10:57.373Z,10.70
2023-01-26T00:11:07.379Z,10.50
2023-01-26T00:11:17.411Z,10.30
2023-01-26T00:11:27.401Z,10.20
2023-01-26T00:11:37.369Z,10.10
2023-01-26T00:11:47.384Z,10.20
2023-01-26T00:11:57.461Z,10.10
2023-01-26T00:12:07.372Z,10.30
2023-01-26T00:12:17.507Z,10.20
2023-01-26T00:12:27.398Z,10.90
2023-01-26T00:12:37.508Z,10.50
2023-01-26T00:12:47.427Z,10.10
2023-01-26T00:12:57.442Z,10.00
2023-01-26T00:13:07.399Z,10.30
2023-01-26T00:13:17.407Z,9.80
2023-01-26T00:13:27.382Z,9.40
2023-01-26T00:13:37.431Z,9.70
2023-01-26T00:13:47.400Z,10.00
2023-01-26T00:13:57.376Z,9.50
2023-01-26T00:14:07.463Z,9.30
2023-01-26T00:14:17.408Z,9.50
2023-01-26T00:14:27.382Z,9.60
2023-01-26T00:14:37.364Z,9.50
2023-01-26T00:14:47.434Z,9.10
2023-01-26T00:14:57.480Z,9.50
2023-01-26T00:15:07.441Z,9.50
2023-01-26T00:15:17.396Z,10.00
2023-01-26T00:15:27.436Z,9.60
2023-01-26T00:15:37.375Z,9.70
2023-01-26T00:15:47.572Z,9.50
2023-01-26T00:15:57.425Z,9.50
2023-01-26T00:16:07.461Z,9.10
2023-01-26T00:16:17.527Z,9.10
2023-01-26T00:16:27.576Z,9.40
2023-01-26T00:16:37.396Z,9.60
2023-01-26T00:16:47.468Z,9.60
2023-01-26T00:16:57.440Z,9.40
2023-01-26T00:17:07.388Z,9.70
2023-01-26T00:17:17.408Z,9.50
2023-01-26T00:17:27.445Z,9.90
2023-01-26T00:17:37.499Z,9.60
2023-01-26T00:17:47.493Z,9.50
2023-01-26T00:17:57.483Z,9.20
2023-01-26T00:18:07.392Z,9.90
2023-01-26T00:18:17.481Z,10.00
2023-01-26T00:18:27.448Z,10.30
2023-01-26T00:18:37.393Z,9.20
2023-01-26T00:18:47.421Z,9.70
2023-01-26T00:18:57.493Z,9.40
2023-01-26T00:19:07.425Z,9.30
2023-01-26T00:19:17.385Z,8.60
2023-01-26T00:19:27.390Z,8.60
2023-01-26T00:19:37.407Z,8.80
2023-01-26T00:19:47.447Z,8.50
2023-01-26T00:19:57.503Z,8.40
2023-01-26T00:20:07.391Z,9.00
2023-01-26T00:20:17.513Z,9.40
2023-01-26T00:20:27.413Z,9.10
2023-01-26T00:20:37.472Z,9.00
2023-01-26T00:20:47.479Z,9.30
2023-01-26T00:20:57.482Z,9.90
2023-01-26T00:21:07.393Z,9.40
2023-01-26T00:21:17.393Z,9.40
2023-01-26T00:21:27.480Z,8.50
2023-01-26T00:21:37.459Z,8.30
2023-01-26T00:21:47.465Z,8.40
2023-01-26T00:21:57.448Z,9.00
2023-01-26T00:22:07.448Z,9.30
2023-01-26T00:22:17.464Z,8.70
2023-01-26T00:22:27.391Z,8.80
2023-01-26T00:22:37.468Z,8.60
2023-01-26T00:22:47.403Z,8.50
2023-01-26T00:22:57.494Z,8.90
2023-01-26T00:23:07.478Z,9.10
2023-01-26T00:23:17.443Z,9.60
2023-01-26T00:23:27.488Z,9.00
2023-01-26T00:23:37.502Z,8.60
2023-01-26T00:23:47.442Z,8.40
2023-01-26T00:23:57.530Z,8.30
2023-01-26T00:24:07.496Z,8.40
2023-01-26T00:24:17.520Z,8.00
2023-01-26T00:24:27.493Z,7.90
2023-01-26T00:24:37.505Z,8.00
2023-01-26T00:24:47.366Z,8.40
2023-01-26T00:24:57.485Z,8.60
2023-01-26T00:25:07.423Z,9.10
2023-01-26T00:25:17.390Z,9.00
2023-01-26T00:25:27.429Z,9.70
2023-01-26T00:25:37.429Z,9.40
2023-01-26T00:25:47.447Z,9.60
2023-01-26T00:25:57.516Z,9.00
2023-01-26T00:26:07.429Z,9.00
2023-01-26T00:26:17.483Z,8.80
2023-01-26T00:26:27.474Z,8.70
2023-01-26T00:26:37.396Z,8.20
2023-01-26T00:26:47.378Z,8.40
2023-01-26T00:26:57.388Z,9.30
2023-01-26T00:27:07.371Z,9.80
2023-01-26T00:27:17.404Z,9.70
2023-01-26T00:27:27.406Z,9.20
2023-01-26T00:27:37.428Z,8.60
2023-01-26T00:27:47.486Z,8.70
2023-01-26T00:27:57.544Z,8.50
2023-01-26T00:28:07.401Z,9.10
2023-01-26T00:28:17.368Z,8.70
2023-01-26T00:28:27.463Z,8.60
2023-01-26T00:28:37.476Z,7.60
2023-01-26T00:28:47.418Z,7.80
2023-01-26T00:28:57.385Z,7.70
2023-01-26T00:29:07.381Z,8.50
2023-01-26T00:29:17.431Z,9.00
2023-01-26T00:29:27.410Z,9.30
2023-01-26T00:29:37.453Z,9.50
2023-01-26T00:29:47.400Z,8.50
2023-01-26T00:29:57.441Z,9.20
2023-01-26T00:30:07.391Z,9.00
2023-01-26T00:30:17.545Z,9.10
2023-01-26T00:30:27.480Z,8.20
2023-01-26T00:30:37.440Z,7.80
2023-01-26T00:30:47.578Z,7.70
2023-01-26T00:30:57.467Z,7.70
2023-01-26T00:31:07.508Z,8.00
2023-01-26T00:31:17.471Z,8.60
2023-01-26T00:31:27.580Z,8.60
2023-01-26T00:31:37.575Z,8.00
2023-01-26T00:31:47.517Z,7.80
2023-01-26T00:31:57.384Z,8.30
2023-01-26T00:32:07.428Z,8.20
2023-01-26T00:32:17.456Z,7.80
2023-01-26T00:32:27.403Z,7.60
2023-01-26T00:32:37.425Z,8.00
2023-01-26T00:32:47.512Z,7.60
2023-01-26T00:32:57.426Z,8.20
2023-01-26T00:33:07.399Z,8.70
2023-01-26T00:33:17.524Z,9.00
2023-01-26T00:33:27.440Z,8.30
2023-01-26T00:33:37.429Z,7.90
2023-01-26T00:33:47.393Z,7.90
2023-01-26T00:33:57.423Z,7.70
2023-01-26T00:34:07.474Z,7.70
2023-01-26T00:34:17.395Z,7.60
2023-01-26T00:34:27.515Z,7.80
2023-01-26T00:34:37.390Z,8.10
2023-01-26T00:34:47.384Z,8.40
2023-01-26T00:34:57.395Z,8.20
2023-01-26T00:35:07.404Z,7.20
2023-01-26T00:35:17.407Z,7.30
2023-01-26T00:35:27.463Z,7.60
2023-01-26T00:35:37.454Z,8.00
2023-01-26T00:35:47.376Z,7.70
2023-01-26T00:35:57.423Z,7.20
2023-01-26T00:36:07.527Z,7.30
2023-01-26T00:36:17.392Z,7.50
2023-01-26T00:36:27.429Z,7.50
2023-01-26T00:36:37.467Z,7.90
2023-01-26T00:36:47.482Z,7.60
2023-01-26T00:36:57.394Z,7.80
2023-01-26T00:37:07.389Z,7.70
2023-01-26T00:37:17.455Z,7.30
2023-01-26T00:37:27.497Z,6.80
2023-01-26T00:37:37.477Z,6.70
2023-01-26T00:37:47.413Z,7.40
2023-01-26T00:37:57.422Z,7.30
2023-01-26T00:38:07.470Z,7.10
2023-01-26T00:38:17.480Z,6.90
2023-01-26T00:38:27.493Z,7.10
2023-01-26T00:38:37.435Z,7.50
2023-01-26T00:38:47.463Z,7.70
2023-01-26T00:38:57.411Z,7.70
2023-01-26T00:39:07.366Z,7.10
2023-01-26T00:39:17.461Z,7.00
2023-01-26T00:39:27.405Z,7.00
2023-01-26T00:39:37.389Z,7.00
2023-01-26T00:39:47.459Z,6.70
2023-01-26T00:39:57.407Z,6.70
2023-01-26T00:40:07.437Z,6.40
2023-01-26T00:40:17.521Z,6.40
2023-01-26T00:40:27.487Z,6.20
2023-01-26T00:40:37.486Z,6.60
2023-01-26T00:40:47.412Z,7.10
2023-01-26T00:40:57.467Z,7.10
2023-01-26T00:41:07.416Z,6.90
2023-01-26T00:41:17.438Z,6.70
2023-01-26T00:41:27.507Z,7.00
2023-01-26T00:41:37.438Z,6.90
2023-01-26T00:41:47.463Z,6.90
2023-01-26T00:41:57.496Z,7.10
2023-01-26T00:42:07.512Z,7.30
2023-01-26T00:42:17.404Z,7.50
2023-01-26T00:42:27.414Z,7.30
2023-01-26T00:42:37.477Z,6.90
2023-01-26T00:42:47.509Z,6.50
2023-01-26T00:42:57.464Z,6.50
2023-01-26T00:43:07.426Z,6.40
2023-01-26T00:43:17.434Z,6.60
2023-01-26T00:43:27.401Z,6.60
2023-01-26T00:43:37.400Z,6.80
2023-01-26T00:43:47.413Z,6.90
2023-01-26T00:43:57.464Z,6.80
2023-01-26T00:44:07.367Z,6.70
2023-01-26T00:44:17.387Z,7.00
2023-01-26T00:44:27.391Z,7.30
2023-01-26T00:44:37.517Z,6.90
2023-01-26T00:44:47.384Z,6.30
2023-01-26T00:44:57.398Z,6.70
2023-01-26T00:45:07.481Z,6.90
2023-01-26T00:45:17.495Z,6.80
2023-01-26T00:45:27.388Z,6.70
2023-01-26T00:45:37.419Z,7.00
2023-01-26T00:45:47.418Z,7.40
2023-01-26T00:45:57.471Z,6.60
2023-01-26T00:46:07.491Z,6.80
2023-01-26T00:46:17.533Z,6.20
2023-01-26T00:46:27.431Z,6.70
2023-01-26T00:46:37.524Z,6.80
2023-01-26T00:46:47.410Z,6.80
2023-01-26T00:46:57.367Z,6.60
2023-01-26T00:47:07.468Z,6.50
2023-01-26T00:47:17.482Z,7.10
2023-01-26T00:47:27.505Z,7.10
2023-01-26T00:47:37.475Z,6.50
2023-01-26T00:47:47.418Z,6.20
2023-01-26T00:47:57.368Z,6.20
2023-01-26T00:48:07.491Z,7.00
2023-01-26T00:48:17.404Z,6.70
2023-01-26T00:48:27.419Z,6.50
2023-01-26T00:48:37.454Z,6.00
2023-01-26T00:48:47.380Z,6.40
2023-01-26T00:48:57.458Z,6.70
2023-01-26T00:49:07.493Z,6.80
2023-01-26T00:49:17.421Z,6.60
2023-01-26T00:49:27.393Z,6.60
2023-01-26T00:49:37.440Z,6.30
2023-01-26T00:49:47.461Z,6.70
2023-01-26T00:49:57.483Z,6.60
2023-01-26T00:50:07.413Z,6.70
2023-01-26T00:50:17.484Z,6.10
2023-01-26T00:50:27.403Z,6.20
2023-01-26T00:50:37.393Z,6.40
2023-01-26T00:50:47.379Z,6.50
2023-01-26T00:50:57.383Z,6.40
2023-01-26T00:51:07.418Z,6.10
2023-01-26T00:51:17.371Z,5.60
2023-01-26T00:51:27.437Z,5.50
2023-01-26T00:51:37.411Z,5.20
2023-01-26T00:51:47.397Z,5.90
2023-01-26T00:51:57.440Z,5.90
2023-01-26T00:52:07.465Z,5.70
2023-01-26T00:52:17.379Z,5.90
2023-01-26T00:52:27.466Z,5.90
2023-01-26T00:52:37.395Z,6.10
2023-01-26T00:52:47.443Z,5.80
2023-01-26T00:52:57.454Z,5.90
2023-01-26T00:53:07.424Z,5.80
2023-01-26T00:53:17.383Z,5.50
2023-01-26T00:53:27.375Z,5.30
2023-01-26T00:53:37.417Z,5.40
2023-01-26T00:53:47.488Z,5.20
2023-01-26T00:53:57.422Z,5.00
2023-01-26T00:54:07.485Z,5.30
2023-01-26T00:54:17.375Z,5.80
2023-01-26T00:54:27.388Z,6.10
2023-01-26T00:54:37.473Z,6.10
2023-01-26T00:54:47.478Z,5.90
2023-01-26T00:54:57.508Z,5.80
2023-01-26T00:55:07.486Z,5.70
2023-01-26T00:55:17.443Z,5.90
2023-01-26T00:55:27.370Z,5.80
2023-01-26T00:55:37.412Z,6.20
2023-01-26T00:55:47.398Z,5.90
2023-01-26T00:55:57.473Z,5.90
2023-01-26T00:56:07.387Z,5.50
2023-01-26T00:56:17.413Z,5.60
2023-01-26T00:56:27.431Z,6.00
2023-01-26T00:56:37.517Z,6.10
2023-01-26T00:56:47.480Z,6.10
2023-01-26T00:56:57.405Z,6.00
2023-01-26T00:57:07.457Z,6.50
2023-01-26T00:57:17.462Z,6.60
2023-01-26T00:57:27.488Z,6.80
2023-01-26T00:57:37.372Z,6.40
2023-01-26T00:57:47.513Z,6.50
2023-01-26T00:57:57.395Z,6.10
2023-01-26T00:58:07.375Z,6.00
2023-01-26T00:58:17.517Z,5.70
2023-01-26T00:58:27.386Z,5.70
2023-01-26T00:58:37.437Z,5.90
2023-01-26T00:58:47.480Z,6.00
2023-01-26T00:58:57.468Z,5.90
2023-01-26T00:59:07.385Z,5.40
2023-01-26T00:59:17.423Z,5.80
2023-01-26T00:59:27.410Z,6.80
2023-01-26T00:59:37.448Z,6.60
2023-01-26T00:59:47.409Z,6.20
2023-01-26T00:59:57.429Z,5.80
2023-01-26T01:00:07.467Z,5.60
2023-01-26T01:00:17.472Z,5.60
2023-01-26T01:00:27.399Z,4.90
2023-01-26T01:00:37.507Z,6.00
2023-01-26T01:00:47.584Z,6.20
2023-01-26T01:00:57.481Z,6.40
2023-01-26T01:01:07.509Z,5.80
2023-01-26T01:01:17.510Z,5.60
2023-01-26T01:01:27.492Z,5.20
2023-01-26T01:01:37.439Z,5.20
2023-01-26T01:01:47.578Z,5.50
2023-01-26T01:01:57.402Z,5.80
2023-01-26T01:02:07.458Z,6.00
2023-01-26T01:02:17.477Z,5.80
2023-01-26T01:02:27.375Z,5.60
2023-01-26T01:02:37.468Z,5.10
2023-01-26T01:02:47.486Z,5.20
2023-01-26T01:02:57.429Z,5.70
2023-01-26T01:03:07.458Z,5.80
2023-01-26T01:03:17.465Z,5.70
2023-01-26T01:03:27.464Z,5.50
2023-01-26T01:03:37.412Z,5.80
2023-01-26T01:03:47.487Z,5.70
2023-01-26T01:03:57.474Z,5.90
2023-01-26T01:04:07.462Z,6.20
2023-01-26T01:04:17.382Z,6.40
2023-01-26T01:04:27.448Z,6.20
2023-01-26T01:04:37.428Z,6.60
2023-01-26T01:04:47.495Z,6.60
2023-01-26T01:04:57.466Z,6.50
2023-01-26T01:05:07.447Z,5.60
2023-01-26T01:05:17.494Z,5.50
2023-01-26T01:05:27.421Z,5.40
2023-01-26T01:05:37.378Z,5.60
2023-01-26T01:05:47.423Z,5.40
2023-01-26T01:05:57.457Z,5.60
2023-01-26T01:06:07.492Z,6.00
2023-01-26T01:06:17.481Z,6.00
2023-01-26T01:06:27.462Z,6.00
2023-01-26T01:06:37.371Z,5.50
2023-01-26T01:06:47.370Z,5.50
2023-01-26T01:06:57.431Z,4.90
2023-01-26T01:07:07.408Z,4.80
2023-01-26T01:07:17.406Z,5.30
2023-01-26T01:07:27.493Z,6.80
2023-01-26T01:07:37.526Z,7.40
2023-01-26T01:07:47.376Z,7.20
2023-01-26T01:07:57.563Z,6.30
2023-01-26T01:08:07.449Z,6.00
2023-01-26T01:08:17.489Z,5.80
2023-01-26T01:08:27.369Z,5.60
2023-01-26T01:08:37.426Z,5.40
2023-01-26T01:08:47.397Z,5.40
2023-01-26T01:08:57.397Z,5.90
2023-01-26T01:09:07.414Z,5.60
2023-01-26T01:09:17.441Z,5.10
2023-01-26T01:09:27.442Z,4.90
2023-01-26T01:09:37.482Z,4.60
2023-01-26T01:09:47.399Z,5.20
2023-01-26T01:09:57.407Z,4.70
2023-01-26T01:10:07.442Z,4.80
2023-01-26T01:10:17.491Z,4.90
2023-01-26T01:10:27.503Z,5.40
2023-01-26T01:10:37.431Z,5.30
2023-01-26T01:10:47.449Z,5.60
2023-01-26T01:10:57.384Z,5.50
2023-01-26T01:11:07.428Z,6.00
2023-01-26T01:11:17.446Z,5.90
2023-01-26T01:11:27.527Z,6.20
2023-01-26T01:11:37.416Z,6.40
2023-01-26T01:11:47.378Z,6.30
2023-01-26T01:11:57.489Z,6.30
2023-01-26T01:12:07.418Z,6.10
2023-01-26T01:12:17.467Z,6.00
2023-01-26T01:12:27.452Z,6.30
2023-01-26T01:12:37.383Z,6.80
2023-01-26T01:12:47.394Z,6.70
2023-01-26T01:12:57.486Z,6.20
2023-01-26T01:13:07.475Z,5.70
2023-01-26T01:13:17.487Z,6.20
2023-01-26T01:13:27.428Z,6.10
2023-01-26T01:13:37.424Z,6.00
2023-01-26T01:13:47.476Z,6.10
2023-01-26T01:13:57.423Z,6.30
2023-01-26T01:14:07.381Z,6.40
2023-01-26T01:14:17.491Z,6.00
2023-01-26T01:14:27.460Z,5.80
2023-01-26T01:14:37.491Z,5.90
2023-01-26T01:14:47.477Z,5.70
2023-01-26T01:14:57.457Z,5.70
2023-01-26T01:15:07.465Z,5.80
2023-01-26T01:15:17.446Z,5.70
2023-01-26T01:15:27.394Z,5.70
2023-01-26T01:15:37.454Z,5.40
2023-01-26T01:15:47.523Z,5.70
2023-01-26T01:15:57.488Z,5.90
2023-01-26T01:16:07.587Z,6.30
2023-01-26T01:16:17.523Z,6.60
2023-01-26T01:16:27.645Z,5.90
2023-01-26T01:16:37.402Z,5.90
2023-01-26T01:16:47.497Z,5.30
2023-01-26T01:16:57.460Z,5.20
2023-01-26T01:17:07.423Z,4.80
2023-01-26T01:17:17.489Z,4.90
2023-01-26T01:17:27.448Z,4.90
2023-01-26T01:17:37.385Z,5.10
2023-01-26T01:17:47.392Z,5.70
2023-01-26T01:17:57.431Z,5.90
2023-01-26T01:18:07.435Z,6.20
2023-01-26T01:18:17.496Z,5.70
2023-01-26T01:18:27.448Z,5.40
2023-01-26T01:18:37.389Z,5.20
2023-01-26T01:18:47.490Z,5.00
2023-01-26T01:18:57.498Z,5.60
2023-01-26T01:19:07.514Z,5.20
2023-01-26T01:19:17.429Z,5.20
2023-01-26T01:19:27.449Z,5.50
2023-01-26T01:19:37.431Z,5.90
2023-01-26T01:19:47.430Z,5.80
2023-01-26T01:19:57.417Z,5.70
2023-01-26T01:20:07.507Z,5.60
2023-01-26T01:20:17.444Z,5.60
2023-01-26T01:20:27.490Z,5.20
2023-01-26T01:20:37.453Z,5.40
2023-01-26T01:20:47.399Z,5.40
2023-01-26T01:20:57.439Z,5.90
2023-01-26T01:21:07.487Z,5.90
2023-01-26T01:21:17.499Z,5.80
2023-01-26T01:21:27.407Z,5.50
2023-01-26T01:21:37.411Z,5.90
2023-01-26T01:21:47.404Z,5.80
2023-01-26T01:21:57.399Z,5.80
2023-01-26T01:22:07.435Z,5.00
2023-01-26T01:22:17.482Z,5.30
2023-01-26T01:22:27.409Z,5.30
2023-01-26T01:22:37.380Z,5.70
2023-01-26T01:22:47.437Z,5.50
2023-01-26T01:22:57.416Z,5.60
2023-01-26T01:23:07.472Z,5.60
2023-01-26T01:23:17.437Z,6.00
2023-01-26T01:23:27.406Z,6.00
2023-01-26T01:23:37.449Z,6.50
2023-01-26T01:23:47.502Z,6.30
2023-01-26T01:23:57.417Z,6.10
2023-01-26T01:24:07.502Z,5.90
2023-01-26T01:24:17.517Z,5.70
2023-01-26T01:24:27.478Z,6.50
2023-01-26T01:24:39.840Z,6.10
2023-01-26T01:24:47.498Z,6.00
2023-01-26T01:24:57.505Z,5.30
2023-01-26T01:25:07.476Z,5.70
2023-01-26T01:25:17.522Z,5.80
2023-01-26T01:25:27.377Z,6.10
2023-01-26T01:25:37.379Z,6.20
2023-01-26T01:25:47.526Z,6.20
2023-01-26T01:25:57.383Z,5.90
2023-01-26T01:26:07.430Z,5.50
2023-01-26T01:26:17.379Z,5.70
2023-01-26T01:26:27.389Z,5.70
2023-01-26T01:26:37.411Z,5.70
2023-01-26T01:26:47.440Z,5.70
2023-01-26T01:26:57.414Z,5.70
2023-01-26T01:27:07.479Z,5.80
2023-01-26T01:27:17.427Z,5.70
2023-01-26T01:27:27.466Z,5.40
2023-01-26T01:27:37.419Z,5.30
2023-01-26T01:27:47.493Z,5.50
2023-01-26T01:27:57.380Z,5.60
2023-01-26T01:28:07.468Z,5.40
2023-01-26T01:28:17.466Z,5.30
2023-01-26T01:28:27.393Z,5.40
2023-01-26T01:28:37.417Z,5.70
2023-01-26T01:28:47.461Z,5.60
2023-01-26T01:28:57.485Z,5.50
2023-01-26T01:29:07.466Z,5.50
2023-01-26T01:29:17.485Z,5.40
2023-01-26T01:29:27.493Z,5.20
2023-01-26T01:29:37.434Z,5.10
2023-01-26T01:29:47.396Z,5.20
2023-01-26T01:29:57.400Z,5.20
2023-01-26T01:30:07.414Z,4.90
2023-01-26T01:30:17.376Z,4.90
2023-01-26T01:30:27.442Z,5.40
2023-01-26T01:30:37.449Z,5.40
2023-01-26T01:30:47.403Z,5.20
2023-01-26T01:30:57.477Z,5.20
2023-01-26T01:31:07.547Z,5.40
2023-01-26T01:31:17.531Z,5.20
2023-01-26T01:31:27.632Z,4.40
2023-01-26T01:31:37.546Z,4.00
2023-01-26T01:31:47.428Z,4.00
2023-01-26T01:31:57.498Z,4.40
2023-01-26T01:32:07.448Z,4.80
2023-01-26T01:32:17.416Z,4.90
2023-01-26T01:32:27.439Z,4.80
2023-01-26T01:32:37.368Z,4.60
2023-01-26T01:32:47.415Z,4.50
2023-01-26T01:32:57.378Z,4.40
2023-01-26T01:33:07.441Z,5.00
2023-01-26T01:33:17.424Z,5.20
2023-01-26T01:33:27.452Z,5.10
2023-01-26T01:33:37.413Z,5.10
2023-01-26T01:33:47.479Z,5.00
2023-01-26T01:33:57.395Z,5.10
2023-01-26T01:34:07.430Z,4.90
2023-01-26T01:34:17.443Z,5.10
2023-01-26T01:34:27.458Z,5.50
2023-01-26T01:34:37.375Z,5.60
2023-01-26T01:34:47.459Z,5.00
2023-01-26T01:34:57.369Z,5.00
2023-01-26T01:35:07.410Z,5.30
2023-01-26T01:35:17.397Z,5.90
2023-01-26T01:35:27.487Z,5.80
2023-01-26T01:35:37.475Z,5.30
2023-01-26T01:35:47.454Z,4.90
2023-01-26T01:35:57.484Z,5.20
2023-01-26T01:36:07.487Z,5.30
2023-01-26T01:36:17.403Z,5.40
2023-01-26T01:36:27.449Z,5.20
2023-01-26T01:36:37.400Z,5.10
2023-01-26T01:36:47.446Z,5.30
2023-01-26T01:36:57.417Z,5.00
2023-01-26T01:37:07.468Z,5.30
2023-01-26T01:37:17.463Z,5.20
2023-01-26T01:37:27.481Z,5.30
2023-01-26T01:37:37.495Z,4.80
2023-01-26T01:37:47.474Z,5.10
2023-01-26T01:37:57.388Z,5.10
2023-01-26T01:38:07.381Z,5.50
2023-01-26T01:38:17.494Z,5.70
2023-01-26T01:38:27.456Z,5.60
2023-01-26T01:38:37.441Z,5.20
2023-01-26T01:38:47.397Z,4.90
2023-01-26T01:38:57.492Z,5.00
2023-01-26T01:39:07.497Z,5.30
2023-01-26T01:39:19.821Z,5.20
2023-01-26T01:39:20.047Z,5.30
2023-01-26T01:39:20.251Z,5.30
2023-01-26T01:39:20.467Z,5.30
2023-01-26T01:39:20.675Z,5.30
2023-01-26T01:39:20.886Z,5.20
2023-01-26T01:39:29.902Z,5.50
2023-01-26T01:39:39.883Z,5.50
2023-01-26T01:39:49.848Z,5.60
2023-01-26T01:39:59.947Z,5.70
2023-01-26T01:40:10.213Z,5.80
2023-01-26T01:40:19.947Z,5.60
2023-01-26T01:40:29.849Z,5.20
2023-01-26T01:40:39.982Z,5.20
2023-01-26T01:40:49.923Z,5.30
2023-01-26T01:40:59.893Z,5.30
2023-01-26T01:41:09.908Z,5.20
2023-01-26T01:41:19.858Z,5.30
2023-01-26T01:41:29.895Z,5.20
2023-01-26T01:41:39.914Z,5.70
2023-01-26T01:41:49.823Z,5.40
2023-01-26T01:41:59.939Z,5.40
2023-01-26T01:42:09.853Z,4.90
2023-01-26T01:42:19.909Z,5.00
2023-01-26T01:42:29.955Z,5.10
2023-01-26T01:42:39.964Z,4.70
2023-01-26T01:42:49.921Z,4.80
2023-01-26T01:42:59.929Z,4.50
2023-01-26T01:43:09.954Z,4.60
2023-01-26T01:43:19.844Z,4.90
2023-01-26T01:43:29.977Z,5.20
2023-01-26T01:43:39.847Z,5.60
2023-01-26T01:43:49.924Z,5.60
2023-01-26T01:43:59.870Z,5.40
2023-01-26T01:44:09.942Z,5.80
2023-01-26T01:44:19.871Z,5.60
2023-01-26T01:44:29.834Z,6.20
2023-01-26T01:44:39.937Z,5.70
2023-01-26T01:44:49.918Z,6.20
2023-01-26T01:44:59.838Z,5.60
2023-01-26T01:45:09.960Z,5.90
2023-01-26T01:45:19.824Z,5.40
2023-01-26T01:45:29.879Z,5.50
2023-01-26T01:45:39.938Z,5.30
2023-01-26T01:45:49.908Z,5.50
2023-01-26T01:45:59.853Z,5.40
2023-01-26T01:46:09.959Z,5.40
2023-01-26T01:46:19.897Z,5.10
2023-01-26T01:46:29.991Z,5.10
2023-01-26T01:46:40.043Z,5.20
2023-01-26T01:46:50.008Z,5.00
2023-01-26T01:46:59.849Z,5.00
2023-01-26T01:47:09.844Z,4.90
2023-01-26T01:47:19.844Z,5.10
2023-01-26T01:47:29.847Z,5.10
2023-01-26T01:47:39.860Z,5.20
2023-01-26T01:47:49.906Z,5.30
2023-01-26T01:47:59.916Z,5.30
2023-01-26T01:48:09.899Z,4.70
2023-01-26T01:48:19.917Z,4.50
2023-01-26T01:48:29.924Z,4.60
2023-01-26T01:48:39.912Z,5.00
2023-01-26T01:48:49.835Z,5.40
2023-01-26T01:48:59.912Z,5.40
2023-01-26T01:49:09.917Z,5.20
2023-01-26T01:49:19.915Z,4.50
2023-01-26T01:49:29.882Z,4.40
2023-01-26T01:49:39.831Z,5.00
2023-01-26T01:49:49.931Z,5.20
2023-01-26T01:49:59.931Z,5.10
2023-01-26T01:50:10.140Z,4.90
2023-01-26T01:50:19.935Z,5.30
2023-01-26T01:50:29.925Z,5.50
2023-01-26T01:50:39.858Z,5.10
2023-01-26T01:50:49.870Z,5.10
2023-01-26T01:50:59.921Z,4.90
2023-01-26T01:51:09.929Z,5.40
2023-01-26T01:51:19.853Z,4.60
2023-01-26T01:51:29.931Z,4.90
2023-01-26T01:51:39.921Z,4.70
2023-01-26T01:51:49.846Z,4.80
2023-01-26T01:51:59.858Z,4.70
2023-01-26T01:52:09.879Z,4.40
2023-01-26T01:52:19.904Z,4.80
2023-01-26T01:52:29.933Z,4.50
2023-01-26T01:52:39.900Z,4.70
2023-01-26T01:52:49.862Z,4.70
2023-01-26T01:52:59.829Z,5.10
2023-01-26T01:53:09.861Z,5.10
2023-01-26T01:53:19.888Z,4.90
2023-01-26T01:53:29.946Z,4.60
2023-01-26T01:53:39.843Z,4.80
2023-01-26T01:53:49.880Z,4.70
2023-01-26T01:53:59.953Z,5.20
2023-01-26T01:54:09.901Z,5.10
2023-01-26T01:54:19.946Z,5.60
2023-01-26T01:54:29.927Z,5.50
2023-01-26T01:54:39.946Z,5.60
2023-01-26T01:54:49.821Z,5.40
2023-01-26T01:54:59.897Z,5.50
2023-01-26T01:55:09.858Z,5.30
2023-01-26T01:55:19.926Z,5.40
2023-01-26T01:55:29.897Z,5.30
2023-01-26T01:55:39.861Z,5.30
2023-01-26T01:55:49.860Z,5.00
2023-01-26T01:55:59.898Z,4.70
2023-01-26T01:56:09.911Z,4.50
2023-01-26T01:56:19.917Z,4.70
2023-01-26T01:56:29.924Z,4.70
2023-01-26T01:56:39.941Z,5.00
2023-01-26T01:56:49.937Z,5.00
2023-01-26T01:56:59.861Z,5.10
2023-01-26T01:57:09.873Z,5.10
2023-01-26T01:57:19.955Z,5.30
2023-01-26T01:57:29.945Z,5.40
2023-01-26T01:57:39.878Z,5.50
2023-01-26T01:57:49.942Z,5.30
2023-01-26T01:57:59.914Z,4.90
2023-01-26T01:58:09.952Z,4.50
2023-01-26T01:58:19.901Z,4.60
2023-01-26T01:58:29.945Z,4.80
2023-01-26T01:58:39.888Z,5.00
2023-01-26T01:58:49.921Z,5.30
2023-01-26T01:58:59.962Z,5.60
2023-01-26T01:59:09.865Z,5.40
2023-01-26T01:59:19.841Z,5.30
2023-01-26T01:59:29.940Z,4.80
2023-01-26T01:59:39.858Z,5.20
2023-01-26T01:59:49.894Z,5.20
2023-01-26T01:59:59.911Z,5.80
2023-01-26T02:00:10.459Z,5.80
2023-01-26T02:00:19.955Z,5.90
2023-01-26T02:00:29.881Z,5.50
2023-01-26T02:00:39.916Z,5.60
2023-01-26T02:00:49.904Z,5.30
2023-01-26T02:00:59.976Z,5.90
2023-01-26T02:01:10.022Z,6.20
2023-01-26T02:01:19.893Z,5.90
2023-01-26T02:01:29.921Z,6.10
2023-01-26T02:01:39.963Z,5.70
2023-01-26T02:01:49.954Z,5.80
2023-01-26T02:01:59.996Z,5.10
2023-01-26T02:02:09.907Z,5.10
2023-01-26T02:02:19.996Z,5.10
2023-01-26T02:02:29.954Z,5.50
2023-01-26T02:02:39.870Z,5.60
2023-01-26T02:02:49.861Z,5.60
2023-01-26T02:02:59.947Z,5.50
2023-01-26T02:03:09.890Z,5.20
2023-01-26T02:03:19.952Z,5.30
2023-01-26T02:03:29.960Z,5.40
2023-01-26T02:03:39.843Z,5.60
2023-01-26T02:03:49.954Z,5.70
2023-01-26T02:03:59.902Z,5.40
2023-01-26T02:04:09.880Z,5.40
2023-01-26T02:04:19.865Z,5.20
2023-01-26T02:04:29.850Z,5.50
2023-01-26T02:04:39.842Z,5.80
2023-01-26T02:04:49.852Z,6.10
2023-01-26T02:04:59.963Z,5.90
2023-01-26T02:05:09.969Z,6.10
2023-01-26T02:05:19.912Z,5.80
2023-01-26T02:05:29.895Z,5.90
2023-01-26T02:05:39.932Z,5.10
2023-01-26T02:05:49.938Z,5.40
2023-01-26T02:05:59.846Z,5.40
2023-01-26T02:06:09.920Z,5.50
2023-01-26T02:06:19.915Z,5.10
2023-01-26T02:06:29.844Z,5.30
2023-01-26T02:06:39.955Z,5.30
2023-01-26T02:06:49.935Z,5.90
2023-01-26T02:06:59.874Z,6.30
2023-01-26T02:07:09.834Z,6.20
2023-01-26T02:07:19.956Z,5.80
2023-01-26T02:07:29.898Z,5.10
2023-01-26T02:07:39.881Z,5.20
2023-01-26T02:07:49.940Z,5.50
2023-01-26T02:07:59.918Z,6.20
2023-01-26T02:08:09.888Z,6.20
2023-01-26T02:08:19.922Z,5.70
2023-01-26T02:08:29.877Z,5.60
2023-01-26T02:08:39.850Z,5.60
2023-01-26T02:08:49.833Z,6.10
2023-01-26T02:08:59.826Z,6.00
2023-01-26T02:09:09.852Z,6.30
2023-01-26T02:09:19.899Z,6.20
2023-01-26T02:09:29.909Z,6.40
2023-01-26T02:09:39.835Z,6.70
2023-01-26T02:09:49.905Z,6.70
2023-01-26T02:09:59.876Z,5.80
2023-01-26T02:10:10.318Z,5.60
2023-01-26T02:10:19.959Z,5.40
2023-01-26T02:10:29.882Z,6.00
2023-01-26T02:10:39.851Z,6.10
2023-01-26T02:10:49.931Z,6.50
2023-01-26T02:10:59.862Z,6.30
2023-01-26T02:11:09.875Z,6.00
2023-01-26T02:11:19.887Z,6.10
2023-01-26T02:11:29.940Z,5.80
2023-01-26T02:11:39.829Z,5.10
2023-01-26T02:11:49.908Z,4.50
2023-01-26T02:11:59.918Z,4.80
2023-01-26T02:12:09.955Z,5.00